createdAt,value
2022-08-05T00:00:18.467Z,3.17
2022-08-05T00:02:51.329Z,3.44
2022-08-05T00:06:01.666Z,2.96
2022-08-05T00:08:33.024Z,3.22
2022-08-05T00:10:52.650Z,3.26
2022-08-05T00:13:19.791Z,3.05
2022-08-05T00:15:58.024Z,3.09
2022-08-05T00:18:25.765Z,3.16
2022-08-05T00:20:55.230Z,3.34
2022-08-05T00:23:44.651Z,3.04
2022-08-05T00:26:09.745Z,3.04
2022-08-05T00:28:36.746Z,3.20
2022-08-05T00:31:04.629Z,3.07
2022-08-05T00:34:56.202Z,3.22
2022-08-05T00:37:10.690Z,3.07
2022-08-05T00:39:13.397Z,3.04
2022-08-05T00:41:52.188Z,3.08
2022-08-05T00:44:23.343Z,3.18
2022-08-05T00:47:01.837Z,2.89
2022-08-05T00:49:32.815Z,2.98
2022-08-05T00:52:10.941Z,3.05
2022-08-05T00:54:38.609Z,2.98
2022-08-05T00:57:05.120Z,3.10
2022-08-05T00:59:42.028Z,3.33
2022-08-05T01:02:11.362Z,3.08
2022-08-05T01:04:37.835Z,3.07
2022-08-05T01:07:13.713Z,3.09
2022-08-05T01:09:40.821Z,3.03
2022-08-05T01:12:18.146Z,3.13
2022-08-05T01:14:59.364Z,3.16
2022-08-05T01:17:53.670Z,3.14
2022-08-05T01:20:39.425Z,3.03
2022-08-05T01:23:43.822Z,3.11
2022-08-05T01:26:40.312Z,3.18
2022-08-05T01:29:34.968Z,2.91
2022-08-05T01:32:06.329Z,3.22
2022-08-05T01:34:45.725Z,2.94
2022-08-05T01:37:25.260Z,3.21
2022-08-05T01:39:58.911Z,3.11
2022-08-05T01:42:29.638Z,3.28
2022-08-05T01:45:00.290Z,3.19
2022-08-05T01:47:39.537Z,3.12
2022-08-05T01:50:15.725Z,3.27
2022-08-05T01:52:49.621Z,3.25
2022-08-05T01:55:20.403Z,3.24
2022-08-05T01:58:11.343Z,3.37
2022-08-05T02:00:41.520Z,3.46
2022-08-05T02:03:24.247Z,3.29
2022-08-05T02:05:59.795Z,3.33
2022-08-05T02:08:30.759Z,3.17
2022-08-05T02:11:08.226Z,3.28
2022-08-05T02:13:53.753Z,3.41
2022-08-05T02:16:38.786Z,3.51
2022-08-05T02:19:15.964Z,3.42
2022-08-05T02:21:54.104Z,3.45
2022-08-05T02:24:27.435Z,3.38
2022-08-05T02:27:09.984Z,3.38
2022-08-05T02:29:58.921Z,3.35
2022-08-05T02:32:31.630Z,3.38
2022-08-05T02:35:13.674Z,3.41
2022-08-05T02:37:47.634Z,3.32
2022-08-05T02:40:21.300Z,3.50
2022-08-05T02:42:52.972Z,3.14
2022-08-05T02:45:24.108Z,3.51
2022-08-05T02:48:07.341Z,3.53
2022-08-05T02:50:42.107Z,3.44
2022-08-05T02:53:18.955Z,3.49
2022-08-05T02:55:52.133Z,3.31
2022-08-05T02:58:27.461Z,3.40
2022-08-05T03:00:58.625Z,3.17
2022-08-05T03:03:33.923Z,3.27
2022-08-05T03:06:55.566Z,3.44
2022-08-05T03:09:04.556Z,3.50
2022-08-05T03:11:56.372Z,3.39
2022-08-05T03:14:17.644Z,3.35
2022-08-05T03:16:44.154Z,3.39
2022-08-05T03:19:16.855Z,3.22
2022-08-05T03:21:57.060Z,3.22
2022-08-05T03:24:29.824Z,3.28
2022-08-05T03:26:56.924Z,3.21
2022-08-05T03:29:24.205Z,3.35
2022-08-05T03:32:11.177Z,3.22
2022-08-05T03:34:38.245Z,3.59
2022-08-05T03:37:06.346Z,3.40
2022-08-05T03:39:38.136Z,3.43
2022-08-05T03:42:13.703Z,3.58
2022-08-05T03:44:42.358Z,3.73
2022-08-05T03:47:08.665Z,3.69
2022-08-05T03:49:51.469Z,3.55
2022-08-05T03:52:39.331Z,3.39
2022-08-05T03:56:04.782Z,3.65
2022-08-05T03:58:12.164Z,3.53
2022-08-05T04:00:42.074Z,3.59
2022-08-05T04:03:15.021Z,3.43
2022-08-05T04:05:54.804Z,3.62
2022-08-05T04:08:35.033Z,3.43
2022-08-05T04:11:06.675Z,3.42
2022-08-05T04:13:55.237Z,3.19
2022-08-05T04:16:25.112Z,3.67
2022-08-05T04:18:57.930Z,3.54
2022-08-05T04:22:10.247Z,3.50
2022-08-05T04:24:14.232Z,3.43
2022-08-05T04:26:46.714Z,3.50
2022-08-05T04:29:13.265Z,3.60
2022-08-05T04:31:40.691Z,3.79
2022-08-05T04:34:19.047Z,3.68
2022-08-05T04:36:53.471Z,3.75
2022-08-05T04:39:20.576Z,3.74
2022-08-05T04:41:48.454Z,3.43
2022-08-05T04:44:16.145Z,3.62
2022-08-05T04:46:48.479Z,3.73
2022-08-05T04:49:15.214Z,3.91
2022-08-05T04:51:43.630Z,4.04
2022-08-05T04:54:10.174Z,3.91
2022-08-05T04:56:38.403Z,3.65
2022-08-05T04:59:21.737Z,3.81
2022-08-05T05:02:35.101Z,4.03
2022-08-05T05:04:43.758Z,4.26
2022-08-05T05:07:10.716Z,3.77
2022-08-05T05:09:37.433Z,4.05
2022-08-05T05:12:06.294Z,3.97
2022-08-05T05:14:36.246Z,3.92
2022-08-05T05:17:03.389Z,3.88
2022-08-05T05:19:36.918Z,3.68
2022-08-05T05:22:24.031Z,3.58
2022-08-05T05:24:57.572Z,3.77
2022-08-05T05:27:45.349Z,3.65
2022-08-05T05:30:31.108Z,3.63
2022-08-05T05:33:08.864Z,3.51
2022-08-05T05:35:44.452Z,3.53
2022-08-05T05:38:13.146Z,3.69
2022-08-05T05:40:48.328Z,3.82
2022-08-05T05:43:21.882Z,3.71
2022-08-05T05:46:05.137Z,3.58
2022-08-05T05:48:34.581Z,3.85
2022-08-05T05:51:14.993Z,3.81
2022-08-05T05:53:54.362Z,3.33
2022-08-05T05:56:32.862Z,3.78
2022-08-05T05:59:03.614Z,3.56
2022-08-05T06:01:37.170Z,3.69
2022-08-05T06:04:11.403Z,3.69
2022-08-05T06:06:41.978Z,3.59
2022-08-05T06:09:09.514Z,3.54
2022-08-05T06:11:48.854Z,3.49
2022-08-05T06:14:27.998Z,3.66
2022-08-05T06:16:55.246Z,3.61
2022-08-05T06:19:26.107Z,3.61
2022-08-05T06:22:01.999Z,3.57
2022-08-05T06:24:28.335Z,3.61
2022-08-05T06:26:55.481Z,3.87
2022-08-05T06:29:43.194Z,3.78
2022-08-05T06:32:25.609Z,3.53
2022-08-05T06:34:57.241Z,3.78
2022-08-05T06:37:56.894Z,3.81
2022-08-05T06:40:12.879Z,3.77
2022-08-05T06:42:40.559Z,4.05
2022-08-05T06:45:08.505Z,3.81
2022-08-05T06:48:36.901Z,3.99
2022-08-05T06:50:22.573Z,3.75
2022-08-05T06:52:58.742Z,3.86
2022-08-05T06:55:36.154Z,4.07
2022-08-05T06:58:29.049Z,3.71
2022-08-05T07:00:49.928Z,3.81
2022-08-05T07:03:17.082Z,4.09
2022-08-05T07:05:43.873Z,4.07
2022-08-05T07:08:12.651Z,4.20
2022-08-05T07:10:39.798Z,4.34
2022-08-05T07:13:58.303Z,3.77
2022-08-05T07:16:07.045Z,4.11
2022-08-05T07:18:38.449Z,4.02
2022-08-05T07:21:14.158Z,3.86
2022-08-05T07:32:11.875Z,3.94
2022-08-05T07:34:42.482Z,3.90
2022-08-05T07:37:11.749Z,4.12
2022-08-05T07:40:04.759Z,4.29
2022-08-05T07:42:33.490Z,4.35
2022-08-05T07:45:00.710Z,4.39
2022-08-05T07:47:27.133Z,4.34
2022-08-05T07:50:10.039Z,4.49
2022-08-05T07:52:43.589Z,4.51
2022-08-05T07:55:44.526Z,4.69
2022-08-05T07:58:03.090Z,4.55
2022-08-05T08:00:30.535Z,5.17
2022-08-05T08:03:15.033Z,4.85
2022-08-05T08:05:49.680Z,4.97
2022-08-05T08:08:17.041Z,4.81
2022-08-05T08:10:48.722Z,4.75
2022-08-05T08:13:15.574Z,5.12
2022-08-05T08:16:34.309Z,5.10
2022-08-05T08:18:35.060Z,5.11
2022-08-05T08:21:09.835Z,5.20
2022-08-05T08:24:01.606Z,5.08
2022-08-05T08:26:29.906Z,4.99
2022-08-05T08:29:02.086Z,5.21
2022-08-05T08:31:36.143Z,5.12
2022-08-05T08:34:02.748Z,5.45
2022-08-05T08:36:47.642Z,4.93
2022-08-05T08:39:19.498Z,4.88
2022-08-05T08:41:52.086Z,5.36
2022-08-05T08:45:16.608Z,5.25
2022-08-05T08:48:05.651Z,5.36
2022-08-05T08:50:30.651Z,5.16
2022-08-05T08:53:08.142Z,4.65
2022-08-05T08:56:04.459Z,4.56
2022-08-05T08:58:37.609Z,4.45
2022-08-05T09:01:17.255Z,4.66
2022-08-05T09:03:55.402Z,4.53
2022-08-05T09:06:29.288Z,4.55
2022-08-05T09:08:58.479Z,4.87
2022-08-05T09:11:51.202Z,4.51
2022-08-05T09:14:58.480Z,4.81
2022-08-05T09:17:00.206Z,5.21
2022-08-05T09:19:27.832Z,5.16
2022-08-05T09:22:23.171Z,4.92
2022-08-05T09:25:13.704Z,4.82
2022-08-05T09:28:03.934Z,5.01
2022-08-05T09:30:34.468Z,4.54
2022-08-05T09:33:04.803Z,4.57
2022-08-05T09:35:31.754Z,4.81
2022-08-05T09:38:12.983Z,4.50
2022-08-05T09:40:53.687Z,4.71
2022-08-05T09:43:41.958Z,5.07
2022-08-05T09:46:27.257Z,4.73
2022-08-05T09:49:06.839Z,4.94
2022-08-05T09:51:48.851Z,4.60
2022-08-05T09:54:29.553Z,4.20
2022-08-05T09:56:57.673Z,4.56
2022-08-05T09:59:27.969Z,4.98
2022-08-05T10:01:57.983Z,4.96
2022-08-05T10:04:36.020Z,4.57
2022-08-05T10:07:14.107Z,4.31
2022-08-05T10:10:14.443Z,5.31
2022-08-05T10:12:49.496Z,4.99
2022-08-05T10:15:20.419Z,4.89
2022-08-05T10:18:11.772Z,4.77
2022-08-05T10:20:48.551Z,4.68
2022-08-05T10:23:34.277Z,4.60
2022-08-05T10:26:13.958Z,4.93
2022-08-05T10:28:43.368Z,4.97
2022-08-05T10:32:48.003Z,5.14
2022-08-05T10:34:01.009Z,5.02
2022-08-05T10:36:28.386Z,4.93
2022-08-05T10:39:05.041Z,4.87
2022-08-05T10:42:00.467Z,4.79
2022-08-05T10:44:29.244Z,4.90
2022-08-05T10:46:57.506Z,5.10
2022-08-05T10:49:27.414Z,4.97
2022-08-05T10:52:00.357Z,5.14
2022-08-05T10:55:02.511Z,5.79
2022-08-05T10:57:31.876Z,5.01
2022-08-05T11:00:22.858Z,5.17
2022-08-05T11:03:24.646Z,4.79
2022-08-05T11:06:15.048Z,4.90
2022-08-05T11:09:16.834Z,5.00
2022-08-05T11:11:53.646Z,4.92
2022-08-05T11:14:57.446Z,5.02
2022-08-05T11:17:59.654Z,5.30
2022-08-05T11:20:39.148Z,5.28
2022-08-05T11:23:33.712Z,4.62
2022-08-05T11:26:16.741Z,4.53
2022-08-05T11:28:58.065Z,4.92
2022-08-05T11:31:56.713Z,5.29
2022-08-05T11:34:39.555Z,4.37
2022-08-05T11:38:26.269Z,4.50
2022-08-05T11:40:00.536Z,4.56
2022-08-05T11:42:32.653Z,4.81
2022-08-05T11:45:14.329Z,4.43
2022-08-05T11:47:54.811Z,4.46
2022-08-05T11:50:21.644Z,4.71
2022-08-05T11:52:50.241Z,4.76
2022-08-05T11:55:18.527Z,4.52
2022-08-05T11:58:10.968Z,4.53
2022-08-05T12:00:38.363Z,4.58
2022-08-05T12:03:28.797Z,4.62
2022-08-05T12:06:06.160Z,4.41
2022-08-05T12:08:48.016Z,4.52
2022-08-05T12:11:40.229Z,4.58
2022-08-05T12:14:10.346Z,4.77
2022-08-05T12:16:45.514Z,4.59
2022-08-05T12:20:27.852Z,4.23
2022-08-05T12:22:01.525Z,4.39
2022-08-05T12:24:28.032Z,4.39
2022-08-05T12:26:54.732Z,4.60
2022-08-05T12:29:24.378Z,4.35
2022-08-05T12:31:54.335Z,4.45
2022-08-05T12:34:31.020Z,4.69
2022-08-05T12:37:03.287Z,4.50
2022-08-05T12:39:34.694Z,4.29
2022-08-05T12:42:16.132Z,4.26
2022-08-05T12:44:45.240Z,4.50
2022-08-05T12:47:28.816Z,4.33
2022-08-05T12:50:05.336Z,4.46
2022-08-05T12:52:39.167Z,4.52
2022-08-05T12:55:25.885Z,4.52
2022-08-05T12:58:50.751Z,4.33
2022-08-05T13:02:04.166Z,4.64
2022-08-05T13:03:34.325Z,4.56
2022-08-05T13:06:08.149Z,3.96
2022-08-05T13:08:38.798Z,4.40
2022-08-05T13:11:07.132Z,4.23
2022-08-05T13:14:05.398Z,4.29
2022-08-05T13:16:25.259Z,4.08
2022-08-05T13:18:57.892Z,4.06
2022-08-05T13:21:27.787Z,4.36
2022-08-05T13:23:55.636Z,4.25
2022-08-05T13:26:30.240Z,4.47
2022-08-05T13:28:57.146Z,4.33
2022-08-05T13:32:02.795Z,4.16
2022-08-05T13:34:21.274Z,4.12
2022-08-05T13:36:50.015Z,4.08
2022-08-05T13:39:24.443Z,3.96
2022-08-05T13:42:02.878Z,4.24
2022-08-05T13:44:29.363Z,4.13
2022-08-05T13:47:02.391Z,4.12
2022-08-05T13:49:35.271Z,4.01
2022-08-05T13:52:19.152Z,3.83
2022-08-05T13:54:57.287Z,3.86
2022-08-05T13:57:26.018Z,3.93
2022-08-05T14:00:12.523Z,3.83
2022-08-05T14:02:39.461Z,3.82
2022-08-05T14:05:05.949Z,3.67
2022-08-05T14:08:00.725Z,3.95
2022-08-05T14:10:28.208Z,3.85
2022-08-05T14:12:55.762Z,3.69
2022-08-05T14:16:07.267Z,4.09
2022-08-05T14:18:14.924Z,4.16
2022-08-05T14:20:46.927Z,4.20
2022-08-05T14:23:14.006Z,3.87
2022-08-05T14:25:47.467Z,3.75
2022-08-05T14:28:26.413Z,3.71
2022-08-05T14:30:54.373Z,3.86
2022-08-05T14:33:22.772Z,3.78
2022-08-05T14:35:52.094Z,3.87
2022-08-05T14:38:33.274Z,3.84
2022-08-05T14:41:05.997Z,3.75
2022-08-05T14:43:58.911Z,3.71
2022-08-05T14:46:21.003Z,3.93
2022-08-05T14:48:49.333Z,4.05
2022-08-05T14:51:17.679Z,3.99
2022-08-05T14:53:45.222Z,4.13
2022-08-05T14:56:31.633Z,4.05
2022-08-05T14:58:58.008Z,4.18
2022-08-05T15:01:48.573Z,4.21
2022-08-05T15:04:11.567Z,4.06
2022-08-05T15:09:52.462Z,4.26
2022-08-05T15:36:36.482Z,4.90
2022-08-05T16:12:15.127Z,4.74
2022-08-05T16:42:13.615Z,6.94
2022-08-05T16:48:07.950Z,5.98
2022-08-05T16:50:45.803Z,6.39
2022-08-05T16:53:22.840Z,5.79
2022-08-05T16:56:01.459Z,6.55
2022-08-05T16:58:28.990Z,6.48
2022-08-05T17:00:56.801Z,7.02
2022-08-05T17:03:25.830Z,5.54
2022-08-05T17:08:36.134Z,5.40
2022-08-05T17:11:16.974Z,5.53
2022-08-05T17:13:44.654Z,6.29
2022-08-05T17:16:33.702Z,5.97
2022-08-05T17:18:58.000Z,5.25
2022-08-05T17:21:24.317Z,5.04
2022-08-05T17:24:05.965Z,4.74
2022-08-05T17:26:38.377Z,4.78
2022-08-05T17:29:04.977Z,4.43
2022-08-05T17:31:41.504Z,4.46
2022-08-05T17:34:30.156Z,4.48
2022-08-05T17:36:59.719Z,4.31
2022-08-05T17:39:33.574Z,4.45
2022-08-05T17:42:19.608Z,4.56
2022-08-05T17:44:50.507Z,4.64
2022-08-05T17:47:22.116Z,4.27
2022-08-05T17:50:00.247Z,4.39
2022-08-05T17:52:34.211Z,4.26
2022-08-05T17:55:03.081Z,4.18
2022-08-05T17:57:29.832Z,4.48
2022-08-05T18:00:05.307Z,4.41
2022-08-05T18:02:33.251Z,4.40
2022-08-05T18:05:01.194Z,4.21
2022-08-05T18:07:40.975Z,4.45
2022-08-05T18:10:10.385Z,4.24
2022-08-05T18:12:37.235Z,4.08
2022-08-05T18:15:04.123Z,4.01
2022-08-05T18:18:00.281Z,3.81
2022-08-05T18:20:18.221Z,3.88
2022-08-05T18:22:54.686Z,3.90
2022-08-05T18:25:33.106Z,3.92
2022-08-05T18:27:59.947Z,3.78
2022-08-05T18:30:31.257Z,3.80
2022-08-05T18:33:00.865Z,3.79
2022-08-05T18:36:00.723Z,3.85
2022-08-05T18:38:19.123Z,3.71
2022-08-05T18:41:54.957Z,3.71
2022-08-05T18:43:42.564Z,4.08
2022-08-05T18:46:10.183Z,4.02
2022-08-05T18:48:41.852Z,3.79
2022-08-05T18:52:04.796Z,3.85
2022-08-05T18:53:55.784Z,4.06
2022-08-05T18:56:25.337Z,4.03
2022-08-05T18:58:54.805Z,3.98
2022-08-05T19:01:47.760Z,3.87
2022-08-05T19:04:14.525Z,3.80
2022-08-05T19:06:50.695Z,3.67
2022-08-05T19:09:17.160Z,3.57
2022-08-05T19:12:01.139Z,3.55
2022-08-05T19:14:53.434Z,3.40
2022-08-05T19:17:16.790Z,3.38
2022-08-05T19:19:46.500Z,3.34
2022-08-05T19:22:17.651Z,3.42
2022-08-05T19:24:54.509Z,3.15
2022-08-05T19:27:23.939Z,3.30
2022-08-05T19:29:50.560Z,3.20
2022-08-05T19:32:17.241Z,3.24
2022-08-05T19:34:55.011Z,3.03
2022-08-05T19:37:34.870Z,3.03
2022-08-05T19:40:10.670Z,2.96
2022-08-05T19:42:37.370Z,2.91
2022-08-05T19:45:06.775Z,2.58
2022-08-05T19:47:34.921Z,2.76
2022-08-05T19:50:06.214Z,2.66
2022-08-05T19:52:34.408Z,3.44
2022-08-05T19:55:06.754Z,2.80
2022-08-05T19:57:57.239Z,2.80
2022-08-05T20:00:25.450Z,2.82
2022-08-05T20:02:52.501Z,2.83
2022-08-05T20:05:24.456Z,2.95
2022-08-05T20:07:59.030Z,2.98
2022-08-05T20:10:31.284Z,2.92
2022-08-05T20:13:01.430Z,2.81
2022-08-05T20:15:52.702Z,2.72
2022-08-05T20:18:33.606Z,2.84
2022-08-05T20:21:01.185Z,3.16
2022-08-05T20:23:40.342Z,2.90
2022-08-05T20:26:16.105Z,2.68
2022-08-05T20:28:45.076Z,2.81
2022-08-05T20:31:16.522Z,2.65
2022-08-05T20:33:49.817Z,2.79
2022-08-05T20:36:19.181Z,2.48
2022-08-05T20:38:54.487Z,2.69
2022-08-05T20:41:43.931Z,2.82
2022-08-05T20:44:18.371Z,2.46
2022-08-05T20:46:50.455Z,2.69
2022-08-05T20:49:24.079Z,2.87
2022-08-05T20:51:54.132Z,2.81
2022-08-05T20:54:24.719Z,3.04
2022-08-05T20:56:54.477Z,2.98
2022-08-05T20:59:26.434Z,3.06
2022-08-05T21:01:57.352Z,2.88
2022-08-05T21:04:28.451Z,3.17
2022-08-05T21:06:58.346Z,3.20
2022-08-05T21:12:08.184Z,3.21
2022-08-05T21:14:38.309Z,3.33
2022-08-05T21:17:06.194Z,3.37
2022-08-05T21:19:46.916Z,3.41
2022-08-05T21:22:21.751Z,3.58
2022-08-05T21:24:54.909Z,3.40
2022-08-05T21:29:57.545Z,3.22
2022-08-05T21:41:06.168Z,3.52
2022-08-05T21:43:41.755Z,3.71
2022-08-05T21:46:08.826Z,3.90
2022-08-05T21:48:38.755Z,3.60
2022-08-05T21:52:15.358Z,3.68
2022-08-05T21:56:44.532Z,3.91
2022-08-05T21:59:24.262Z,3.81
2022-08-05T22:01:54.456Z,3.92
2022-08-05T22:04:25.237Z,3.99
2022-08-05T22:07:00.095Z,3.95
2022-08-05T22:09:45.884Z,3.80
2022-08-05T22:12:17.586Z,3.52
2022-08-05T22:17:59.946Z,3.63
2022-08-05T22:20:27.371Z,3.65
2022-08-05T22:22:55.650Z,3.64
2022-08-05T22:25:31.105Z,3.64
2022-08-05T22:28:13.761Z,4.00
2022-08-05T22:30:44.031Z,3.84
2022-08-05T22:33:57.633Z,3.53
2022-08-05T22:36:14.724Z,3.80
2022-08-05T22:38:43.382Z,3.63
2022-08-05T22:43:57.918Z,3.37
2022-08-05T22:46:25.860Z,3.72
2022-08-05T22:48:53.023Z,3.42
2022-08-05T22:54:08.543Z,3.59
2022-08-05T22:56:35.250Z,3.33
2022-08-05T22:59:45.191Z,3.36
2022-08-05T23:13:07.359Z,3.06
2022-08-05T23:18:16.015Z,3.05
2022-08-05T23:20:43.435Z,3.11
2022-08-05T23:23:10.182Z,3.09
2022-08-05T23:28:29.481Z,2.91
2022-08-05T23:31:07.042Z,2.81
2022-08-05T23:34:04.760Z,2.96
2022-08-05T23:36:38.512Z,2.67
2022-08-05T23:39:09.482Z,2.67
2022-08-05T23:41:41.094Z,2.60
2022-08-05T23:44:15.560Z,2.95
2022-08-05T23:46:46.032Z,2.66
2022-08-05T23:49:16.794Z,2.63
2022-08-05T23:51:53.414Z,2.78
2022-08-05T23:54:34.173Z,2.91
2022-08-05T23:57:05.885Z,2.81
2022-08-05T23:59:37.683Z,2.96
